Time;durP1;ratioP1;P1;durP2;ratioP2;P2;SDS_P1;SDS_P2;PMS_P1;PMS_P2;Temp;Humidity;BMP_temperature;BMP_pressure;BME280_temperature;BME280_humidity;BME280_pressure;Samples;Min_cycle;Max_cycle;Signal;HPM_P1;HPM_P2
2021/01/09 00:01:03;;;;;;;129.60;78.70;;;;;;;-2.70;84.94;99361.36;493559;1143;65133;-62
2021/01/09 00:11:08;;;;;;;122.00;75.27;;;;;;;-2.63;84.73;99352.67;493678;1143;65209;-63
2021/01/09 00:21:12;;;;;;;123.60;77.40;;;;;;;-2.45;85.11;99368.73;493420;1144;65210;-63
2021/01/09 00:31:16;;;;;;;146.13;83.57;;;;;;;-2.45;84.74;99373.86;493400;1143;65127;-64
2021/01/09 00:41:27;;;;;;;137.95;79.30;;;;;;;-2.39;84.63;99368.62;493631;1143;65158;-64
2021/01/09 00:51:31;;;;;;;147.53;84.10;;;;;;;-2.40;84.54;99370.36;493321;1143;65092;-63
2021/01/09 01:01:35;;;;;;;108.80;67.97;;;;;;;-2.29;85.00;99374.50;493422;1143;65204;-65
2021/01/09 01:11:41;;;;;;;115.50;67.60;;;;;;;-2.20;84.77;99376.08;493890;1143;65121;-63
2021/01/09 01:21:45;;;;;;;91.53;56.20;;;;;;;-2.16;84.99;99373.44;493711;1143;65539;-63
2021/01/09 01:31:49;;;;;;;90.87;54.83;;;;;;;-2.14;85.01;99381.97;493898;1143;65206;-63
2021/01/09 01:41:56;;;;;;;77.57;49.40;;;;;;;-2.04;84.85;99381.84;493974;1143;65116;-63
2021/01/09 01:52:00;;;;;;;73.95;47.33;;;;;;;-1.94;84.96;99382.53;493704;1143;65156;-64
2021/01/09 02:02:06;;;;;;;76.83;42.93;;;;;;;-1.88;85.40;99374.72;493662;1143;65178;-63
2021/01/09 02:12:13;;;;;;;;;;;;;;;-1.88;85.55;99367.83;493436;1143;65207;-63
2021/01/09 02:22:18;;;;;;;68.78;41.45;;;;;;;-1.86;85.41;99375.54;493508;1143;65200;-64
2021/01/09 02:32:27;;;;;;;65.20;36.13;;;;;;;-1.87;85.34;99377.25;493964;1144;65388;-65
2021/01/09 02:42:32;;;;;;;57.30;28.43;;;;;;;-1.90;85.27;99385.03;493372;1143;65230;-63
2021/01/09 02:52:36;;;;;;;53.57;29.80;;;;;;;-1.87;85.17;99389.28;493253;1143;65194;-61
2021/01/09 03:02:40;;;;;;;54.00;27.90;;;;;;;-1.87;85.30;99391.86;494064;1143;65207;-66
2021/01/09 03:12:45;;;;;;;48.77;26.63;;;;;;;-1.92;85.73;99385.92;494212;1144;65273;-61
2021/01/09 03:22:49;;;;;;;48.93;27.27;;;;;;;-1.86;86.06;99375.54;493324;1143;65124;-61
2021/01/09 03:32:53;;;;;;;41.53;24.57;;;;;;;-1.78;86.19;99380.55;493152;1144;65319;-60
2021/01/09 03:42:57;;;;;;;45.47;25.73;;;;;;;-1.68;86.38;99382.09;493431;1143;65108;-61
2021/01/09 03:53:01;;;;;;;49.97;29.60;;;;;;;-1.60;85.93;99380.25;494152;1143;65573;-61
2021/01/09 04:03:05;;;;;;;55.33;26.50;;;;;;;-1.55;85.50;99383.58;493695;1144;65215;-61
2021/01/09 04:13:13;;;;;;;44.83;23.27;;;;;;;-1.45;86.45;99394.55;493407;1143;66276;-61
2021/01/09 04:23:17;;;;;;;48.13;26.33;;;;;;;-1.39;85.85;99397.91;493999;1143;65204;-61
2021/01/09 04:33:21;;;;;;;46.45;25.50;;;;;;;-1.36;85.45;99406.45;494251;1144;65104;-61
2021/01/09 04:43:26;;;;;;;45.83;24.47;;;;;;;-1.34;86.01;99404.69;494189;1144;65155;-61
2021/01/09 04:53:31;;;;;;;42.83;23.13;;;;;;;-1.25;85.56;99418.28;493696;1144;65328;-61
2021/01/09 05:03:35;;;;;;;49.73;25.13;;;;;;;-1.33;85.87;99420.97;494019;1144;65136;-62
2021/01/09 05:13:39;;;;;;;40.63;23.00;;;;;;;-1.27;86.07;99426.89;494023;1143;65178;-61
2021/01/09 05:23:50;;;;;;;43.73;27.93;;;;;;;-1.32;85.59;99423.53;493834;1144;65561;-61
2021/01/09 05:33:55;;;;;;;39.30;23.23;;;;;;;-1.28;86.21;99440.62;493551;1144;65194;-61
2021/01/09 05:44:01;;;;;;;36.90;22.87;;;;;;;-1.31;86.39;99438.11;493987;1144;65130;-61
2021/01/09 05:54:06;;;;;;;43.77;23.97;;;;;;;-1.25;86.39;99444.05;494151;1144;65118;-60
2021/01/09 06:04:19;;;;;;;32.93;20.00;;;;;;;-1.25;86.47;99465.49;494530;1143;65133;-58
2021/01/09 06:14:28;;;;;;;40.23;24.43;;;;;;;-1.19;86.70;99469.69;493655;1143;65204;-59
2021/01/09 06:24:32;;;;;;;46.13;24.03;;;;;;;-1.14;87.19;99479.03;493860;1143;65484;-60
2021/01/09 06:34:39;;;;;;;43.33;24.73;;;;;;;-1.14;87.07;99496.23;494043;1143;65374;-60
2021/01/09 06:44:50;;;;;;;47.30;24.10;;;;;;;-1.15;86.41;99499.70;493386;1143;65108;-60
2021/01/09 06:54:53;;;;;;;43.30;25.70;;;;;;;-1.13;86.89;99505.67;493708;1143;65174;-61
2021/01/09 07:05:03;;;;;;;46.07;26.03;;;;;;;-1.14;86.76;99512.53;493688;1143;65332;-61
2021/01/09 07:15:10;;;;;;;41.27;22.53;;;;;;;-1.07;87.05;99517.59;494284;1144;65110;-61
2021/01/09 07:25:20;;;;;;;40.27;24.13;;;;;;;-1.00;87.42;99516.59;485348;1144;10001272;-60
2021/01/09 07:35:26;;;;;;;42.80;24.90;;;;;;;-0.88;87.05;99536.16;493187;1143;65723;-60
2021/01/09 07:45:34;;;;;;;46.83;23.40;;;;;;;-0.78;87.41;99547.15;493444;1143;65180;-61
2021/01/09 07:55:47;;;;;;;46.03;25.60;;;;;;;-0.72;87.44;99547.05;493779;1143;65332;-60
2021/01/09 08:05:59;;;;;;;48.07;23.83;;;;;;;-0.73;87.41;99553.92;493433;1143;65204;-61
2021/01/09 08:16:03;;;;;;;40.30;22.95;;;;;;;-0.72;87.71;99562.52;493501;1143;65143;-60
2021/01/09 08:26:13;;;;;;;41.20;23.10;;;;;;;-0.68;87.35;99558.16;493689;1143;65140;-61
2021/01/09 08:36:18;;;;;;;42.70;23.85;;;;;;;-0.62;86.53;99568.35;493355;1143;65133;-59
2021/01/09 08:46:21;;;;;;;41.35;22.95;;;;;;;-0.67;86.31;99581.33;496507;1143;65160;-60
2021/01/09 08:56:27;;;;;;;51.43;29.97;;;;;;;-0.58;87.25;99588.04;493420;1143;65114;-60
2021/01/09 09:06:36;;;;;;;47.57;24.97;;;;;;;-0.44;86.48;99593.82;494286;1143;65172;-61
2021/01/09 09:16:40;;;;;;;48.90;27.30;;;;;;;-0.41;86.53;99594.63;494159;1143;65215;-62
2021/01/09 09:26:45;;;;;;;51.80;26.97;;;;;;;-0.45;86.54;99591.25;493703;1143;65189;-60
2021/01/09 09:37:00;;;;;;;44.83;26.00;;;;;;;-0.40;87.12;99584.30;493345;1143;65146;-61
2021/01/09 09:47:05;;;;;;;51.57;27.17;;;;;;;-0.32;87.27;99582.39;493836;1144;65212;-61
2021/01/09 09:57:20;;;;;;;56.60;28.77;;;;;;;-0.23;87.25;99576.23;493863;1143;65116;-64
2021/01/09 10:07:24;;;;;;;45.37;26.50;;;;;;;-0.15;87.25;99571.73;493683;1143;65185;-57
2021/01/09 10:17:28;;;;;;;43.90;25.50;;;;;;;-0.10;86.20;99583.72;494278;1143;65180;-60
2021/01/09 10:27:33;;;;;;;48.25;25.90;;;;;;;-0.06;87.14;99582.77;494221;1144;65118;-57
2021/01/09 10:37:38;;;;;;;38.60;24.07;;;;;;;-0.07;87.26;99583.66;494167;1143;65262;-59
2021/01/09 10:47:42;;;;;;;47.30;27.17;;;;;;;-0.05;87.18;99581.88;494221;1143;65104;-60
2021/01/09 10:57:49;;;;;;;44.45;25.35;;;;;;;-0.15;86.29;99584.64;494326;1144;65102;-60
2021/01/09 11:07:53;;;;;;;46.90;24.85;;;;;;;-0.07;86.57;99581.06;494382;1144;65130;-59
2021/01/09 11:17:58;;;;;;;42.05;23.95;;;;;;;-0.05;87.07;99584.46;494284;1144;65563;-59
2021/01/09 11:28:03;;;;;;;36.97;22.77;;;;;;;-0.08;86.46;99587.11;493559;1143;65555;-59
2021/01/09 11:38:07;;;;;;;40.00;22.80;;;;;;;-0.14;87.55;99595.83;493860;1143;65210;-59
2021/01/09 11:48:11;;;;;;;41.30;22.50;;;;;;;-0.19;86.67;99589.89;494192;1143;65508;-58
2021/01/09 11:58:15;;;;;;;33.67;20.67;;;;;;;-0.18;87.30;99584.71;493958;1143;65172;-59
2021/01/09 12:08:19;;;;;;;40.23;20.03;;;;;;;-0.20;86.87;99590.78;493814;1143;65465;-64
2021/01/09 12:18:24;;;;;;;32.50;17.37;;;;;;;-0.15;86.50;99604.45;493811;1143;65195;-63
2021/01/09 12:28:28;;;;;;;34.60;20.30;;;;;;;-0.20;87.69;99606.27;493914;1143;65184;-62
2021/01/09 12:38:31;;;;;;;33.97;19.07;;;;;;;-0.25;87.49;99608.09;493751;1143;65571;-61
2021/01/09 12:48:35;;;;;;;27.30;16.20;;;;;;;-0.40;86.79;99609.23;493763;1143;65121;-60
2021/01/09 12:58:39;;;;;;;28.47;14.60;;;;;;;-0.41;86.97;99615.27;493755;1143;65170;-61
2021/01/09 13:09:05;;;;;;;22.33;14.03;;;;;;;-0.45;87.27;99628.23;494134;1144;65111;-66
2021/01/09 13:19:09;;;;;;;21.33;12.20;;;;;;;-0.45;87.28;99635.98;493610;1143;65124;-61
2021/01/09 13:29:14;;;;;;;22.67;13.17;;;;;;;-0.41;87.37;99647.07;493818;1143;65134;-62
2021/01/09 13:39:18;;;;;;;22.60;15.30;;;;;;;-0.53;86.69;99662.77;493815;1143;65127;-63
2021/01/09 13:49:22;;;;;;;21.13;13.60;;;;;;;-0.48;87.07;99666.13;485406;1144;10001667;-67
2021/01/09 13:59:26;;;;;;;23.87;14.20;;;;;;;-0.51;86.35;99682.51;493953;1143;65697;-66
2021/01/09 14:09:30;;;;;;;23.83;13.90;;;;;;;-0.43;87.38;99674.63;493428;1143;65739;-57
2021/01/09 14:19:37;;;;;;;21.53;13.00;;;;;;;-0.42;86.09;99668.59;493359;1143;65145;-61
2021/01/09 14:29:41;;;;;;;21.17;14.20;;;;;;;-0.44;86.67;99686.70;493935;1143;65154;-63
2021/01/09 14:39:45;;;;;;;19.53;13.63;;;;;;;-0.48;85.77;99682.45;493668;1143;65131;-61
2021/01/09 14:49:50;;;;;;;19.57;13.73;;;;;;;-0.61;85.73;99693.85;493884;1143;65198;-61
2021/01/09 14:59:56;;;;;;;23.57;15.03;;;;;;;-0.62;86.83;99708.49;494394;1143;65143;-61
2021/01/09 15:10:00;;;;;;;19.60;14.77;;;;;;;-0.66;85.65;99719.72;494028;1143;65575;-62
2021/01/09 15:20:07;;;;;;;18.27;12.73;;;;;;;-0.74;85.44;99722.42;493253;1143;65233;-59
2021/01/09 15:30:14;;;;;;;19.75;14.00;;;;;;;-0.80;85.54;99737.14;493666;1143;65201;-59
2021/01/09 15:40:18;;;;;;;16.03;11.53;;;;;;;-0.91;84.80;99745.05;493686;1143;65195;-61
2021/01/09 15:50:22;;;;;;;14.63;9.60;;;;;;;-1.05;84.43;99750.38;493883;1143;65118;-58
2021/01/09 16:00:26;;;;;;;12.03;8.47;;;;;;;-1.10;85.60;99763.33;493431;1143;65124;-63
2021/01/09 16:10:30;;;;;;;12.17;8.53;;;;;;;-0.99;84.80;99764.03;493312;1143;65329;-64
2021/01/09 16:20:34;;;;;;;12.17;8.67;;;;;;;-1.08;85.17;99774.47;493367;1143;65127;-63
2021/01/09 16:30:40;;;;;;;13.60;10.03;;;;;;;-1.23;84.70;99785.81;493354;1144;65237;-63
2021/01/09 16:40:49;;;;;;;16.27;11.00;;;;;;;-1.32;84.39;99776.48;493252;1143;65193;-64
2021/01/09 16:50:56;;;;;;;12.20;8.87;;;;;;;-1.37;84.56;99783.43;493392;1143;65105;-60
2021/01/09 17:01:00;;;;;;;12.85;8.90;;;;;;;-1.24;84.71;99788.43;493450;1143;65114;-59
2021/01/09 17:11:05;;;;;;;12.65;10.05;;;;;;;-1.14;84.36;99785.70;493683;1143;65453;-58
2021/01/09 17:21:12;;;;;;;13.67;9.77;;;;;;;-1.35;84.67;99796.27;492979;1143;65177;-58
2021/01/09 17:31:16;;;;;;;10.63;8.53;;;;;;;-1.41;85.00;99815.23;493695;1143;65677;-60
2021/01/09 17:41:20;;;;;;;10.60;8.50;;;;;;;-1.51;84.45;99818.77;493585;1144;65548;-62
2021/01/09 17:51:25;;;;;;;12.47;8.83;;;;;;;-1.46;84.46;99829.89;492818;1128;408953;-61
2021/01/09 18:01:29;;;;;;;11.70;8.70;;;;;;;-1.43;84.08;99835.88;492705;1145;65204;-60
2021/01/09 18:11:36;;;;;;;12.00;8.03;;;;;;;-1.48;84.55;99839.38;492512;1146;66315;-62
2021/01/09 18:21:41;;;;;;;14.80;9.80;;;;;;;-1.42;84.38;99844.44;493066;1144;65140;-61
2021/01/09 18:31:46;;;;;;;21.77;13.27;;;;;;;-1.34;84.64;99832.34;492580;1144;65130;-62
2021/01/09 18:41:51;;;;;;;17.53;11.50;;;;;;;-1.29;85.21;99837.44;492573;1144;65114;-61
2021/01/09 18:51:59;;;;;;;21.00;14.27;;;;;;;-1.30;84.69;99846.05;493021;1144;65542;-61
2021/01/09 19:02:22;;;;;;;24.03;16.47;;;;;;;-1.27;85.04;99841.71;492102;1145;65625;-61
2021/01/09 19:12:30;;;;;;;29.10;18.37;;;;;;;-1.22;85.52;99848.53;492779;1144;65213;-62
2021/01/09 19:22:49;;;;;;;30.63;20.87;;;;;;;-1.24;85.65;99848.53;492196;1144;65449;-60
2021/01/09 19:32:55;;;;;;;32.10;21.03;;;;;;;-1.30;85.66;99846.05;492019;1143;65130;-61
2021/01/09 19:42:59;;;;;;;24.40;16.43;;;;;;;-1.30;86.24;99853.77;492728;1144;65140;-61
2021/01/09 19:53:04;;;;;;;31.90;20.97;;;;;;;-1.29;86.05;99855.48;492344;1144;65210;-59
2021/01/09 20:03:10;;;;;;;35.05;21.95;;;;;;;-1.25;85.76;99864.87;492887;1144;65118;-58
2021/01/09 20:13:15;;;;;;;32.97;19.77;;;;;;;-1.27;85.75;99871.77;492596;1144;65765;-58
2021/01/09 20:23:19;;;;;;;34.53;20.93;;;;;;;-1.22;86.38;99871.72;492426;1144;65158;-58
2021/01/09 20:33:23;;;;;;;31.45;18.85;;;;;;;-1.12;86.45;99875.91;492823;1144;65121;-57
2021/01/09 20:43:27;;;;;;;31.97;20.43;;;;;;;-1.06;86.38;99878.39;493173;1144;65140;-58
2021/01/09 20:53:31;;;;;;;33.05;21.45;;;;;;;-1.04;86.05;99868.08;492778;1142;65147;-59
2021/01/09 21:03:35;;;;;;;38.50;24.00;;;;;;;-1.03;86.25;99874.94;492736;1144;65117;-59
2021/01/09 21:13:40;;;;;;;34.55;22.70;;;;;;;-1.04;86.22;99880.97;492221;1144;65115;-59
2021/01/09 21:23:48;;;;;;;27.57;18.40;;;;;;;-1.11;85.58;99885.34;492149;1145;65139;-59
2021/01/09 21:33:55;;;;;;;33.57;21.10;;;;;;;-1.20;85.31;99881.15;493131;1144;65481;-58
2021/01/09 21:44:02;;;;;;;30.77;19.83;;;;;;;-1.22;86.09;99902.64;492793;1144;65122;-59
2021/01/09 21:54:10;;;;;;;31.37;18.95;;;;;;;-1.22;86.28;99920.68;492741;1144;65567;-59
2021/01/09 22:04:14;;;;;;;28.23;18.53;;;;;;;-1.21;85.59;99910.37;492615;1144;65518;-60
2021/01/09 22:14:19;;;;;;;29.43;20.43;;;;;;;-1.15;86.16;99918.02;492890;1144;65587;-60
2021/01/09 22:24:23;;;;;;;33.40;19.97;;;;;;;-1.15;86.10;99930.06;493462;1144;65494;-60
2021/01/09 22:34:27;;;;;;;28.80;16.45;;;;;;;-1.22;85.92;99925.83;492996;1144;65114;-59
2021/01/09 22:44:31;;;;;;;30.80;18.85;;;;;;;-1.28;85.51;99924.17;492334;1144;65597;-59
2021/01/09 22:54:38;;;;;;;29.97;17.27;;;;;;;-1.27;86.37;99925.87;492767;1145;65776;-60
2021/01/09 23:04:42;;;;;;;32.60;19.33;;;;;;;-1.28;85.56;99922.43;493278;1144;65137;-62
2021/01/09 23:14:46;;;;;;;34.37;20.70;;;;;;;-1.35;86.30;99931.11;492943;1144;65207;-56
2021/01/09 23:24:52;;;;;;;36.23;22.03;;;;;;;-1.34;85.99;99942.25;492688;1144;65583;-56
2021/01/09 23:34:56;;;;;;;31.47;19.93;;;;;;;-1.35;85.91;99941.41;492384;1144;65188;-57
2021/01/09 23:45:00;;;;;;;28.63;18.10;;;;;;;-1.52;85.94;99936.42;493249;1144;65143;-57
2021/01/09 23:55:07;;;;;;;29.23;17.50;;;;;;;-1.53;85.66;99933.84;493010;1144;65140;-57
